sensor_id;sensor_type;location;lat;lon;timestamp;pressure;altitude;pressure_sealevel;temperature;humidity
7962;BME280;4026;43.652;24.906;2023-01-27T00:00:26;98516.13;;;1.94;100.00
7962;BME280;4026;43.652;24.906;2023-01-27T00:02:53;98515.41;;;1.92;100.00
7962;BME280;4026;43.652;24.906;2023-01-27T00:05:20;98513.59;;;1.94;100.00
7962;BME280;4026;43.652;24.906;2023-01-27T00:07:49;98511.38;;;1.88;100.00
7962;BME280;4026;43.652;24.906;2023-01-27T00:10:18;98503.53;;;1.94;100.00
7962;BME280;4026;43.652;24.906;2023-01-27T00:12:46;98503.38;;;1.97;100.00
7962;BME280;4026;43.652;24.906;2023-01-27T00:15:31;98511.31;;;1.90;100.00
7962;BME280;4026;43.652;24.906;2023-01-27T00:17:59;98517.56;;;2.00;100.00
7962;BME280;4026;43.652;24.906;2023-01-27T00:20:26;98515.25;;;1.95;100.00
7962;BME280;4026;43.652;24.906;2023-01-27T00:23:15;98518.38;;;2.00;100.00
7962;BME280;4026;43.652;24.906;2023-01-27T00:26:02;98525.88;;;2.02;100.00
7962;BME280;4026;43.652;24.906;2023-01-27T00:28:31;98521.88;;;1.98;100.00
7962;BME280;4026;43.652;24.906;2023-01-27T00:30:58;98523.53;;;1.97;100.00
7962;BME280;4026;43.652;24.906;2023-01-27T00:33:25;98527.56;;;2.01;100.00
7962;BME280;4026;43.652;24.906;2023-01-27T00:35:59;98527.13;;;1.93;100.00
7962;BME280;4026;43.652;24.906;2023-01-27T00:38:28;98524.31;;;1.99;100.00
7962;BME280;4026;43.652;24.906;2023-01-27T00:40:56;98522.75;;;1.97;100.00
7962;BME280;4026;43.652;24.906;2023-01-27T00:43:44;98520.59;;;1.89;100.00
7962;BME280;4026;43.652;24.906;2023-01-27T00:46:10;98517.63;;;1.98;100.00
7962;BME280;4026;43.652;24.906;2023-01-27T00:48:37;98517.03;;;1.93;100.00
7962;BME280;4026;43.652;24.906;2023-01-27T00:51:04;98516.56;;;1.85;100.00
7962;BME280;4026;43.652;24.906;2023-01-27T00:53:32;98503.53;;;1.94;100.00
7962;BME280;4026;43.652;24.906;2023-01-27T00:55:59;98506.97;;;2.11;100.00
7962;BME280;4026;43.652;24.906;2023-01-27T00:58:27;98503.69;;;2.09;100.00
7962;BME280;4026;43.652;24.906;2023-01-27T01:00:55;98509.50;;;2.11;100.00
7962;BME280;4026;43.652;24.906;2023-01-27T01:03:24;98498.47;;;1.94;100.00
7962;BME280;4026;43.652;24.906;2023-01-27T01:05:51;98485.97;;;1.93;100.00
7962;BME280;4026;43.652;24.906;2023-01-27T01:08:18;98491.00;;;1.93;100.00
7962;BME280;4026;43.652;24.906;2023-01-27T01:10:46;98490.19;;;1.92;100.00
7962;BME280;4026;43.652;24.906;2023-01-27T01:13:13;98481.59;;;1.96;100.00
7962;BME280;4026;43.652;24.906;2023-01-27T01:15:40;98489.50;;;1.89;100.00
7962;BME280;4026;43.652;24.906;2023-01-27T01:18:08;98480.84;;;1.94;100.00
7962;BME280;4026;43.652;24.906;2023-01-27T01:20:36;98488.41;;;1.94;100.00
7962;BME280;4026;43.652;24.906;2023-01-27T01:23:04;98489.31;;;2.11;100.00
7962;BME280;4026;43.652;24.906;2023-01-27T01:25:31;98498.19;;;2.00;100.00
7962;BME280;4026;43.652;24.906;2023-01-27T01:27:59;98498.47;;;1.94;100.00
7962;BME280;4026;43.652;24.906;2023-01-27T01:30:26;98491.53;;;1.99;100.00
7962;BME280;4026;43.652;24.906;2023-01-27T01:32:53;98492.44;;;1.98;100.00
7962;BME280;4026;43.652;24.906;2023-01-27T01:35:21;98491.53;;;1.99;100.00
7962;BME280;4026;43.652;24.906;2023-01-27T01:37:49;98493.09;;;2.02;100.00
7962;BME280;4026;43.652;24.906;2023-01-27T01:40:16;98491.53;;;1.99;100.00
7962;BME280;4026;43.652;24.906;2023-01-27T01:43:00;98494.81;;;2.01;100.00
7962;BME280;4026;43.652;24.906;2023-01-27T01:45:42;98483.91;;;2.01;100.00
7962;BME280;4026;43.652;24.906;2023-01-27T01:48:13;98477.16;;;2.01;100.00
7962;BME280;4026;43.652;24.906;2023-01-27T01:50:44;98482.53;;;1.94;100.00
7962;BME280;4026;43.652;24.906;2023-01-27T01:53:13;98471.13;;;1.87;100.00
7962;BME280;4026;43.652;24.906;2023-01-27T01:55:40;98476.53;;;1.96;100.00
7962;BME280;4026;43.652;24.906;2023-01-27T01:58:10;98469.28;;;1.90;100.00
7962;BME280;4026;43.652;24.906;2023-01-27T02:00:38;98471.66;;;1.93;100.00
7962;BME280;4026;43.652;24.906;2023-01-27T02:03:05;98465.50;;;1.99;100.00
7962;BME280;4026;43.652;24.906;2023-01-27T02:05:36;98464.69;;;1.98;100.00
7962;BME280;4026;43.652;24.906;2023-01-27T02:08:09;98467.78;;;2.03;100.00
7962;BME280;4026;43.652;24.906;2023-01-27T02:10:39;98468.09;;;1.97;100.00
7962;BME280;4026;43.652;24.906;2023-01-27T02:13:06;98465.28;;;2.03;100.00
7962;BME280;4026;43.652;24.906;2023-01-27T02:15:36;98465.16;;;2.07;100.00
7962;BME280;4026;43.652;24.906;2023-01-27T02:18:04;98467.69;;;2.07;100.00
7962;BME280;4026;43.652;24.906;2023-01-27T02:20:38;98457.72;;;2.03;100.00
7962;BME280;4026;43.652;24.906;2023-01-27T02:23:13;98456.38;;;1.96;100.00
7962;BME280;4026;43.652;24.906;2023-01-27T02:25:50;98441.41;;;1.93;100.00
7962;BME280;4026;43.652;24.906;2023-01-27T02:28:19;98431.94;;;1.98;100.00
7962;BME280;4026;43.652;24.906;2023-01-27T02:30:46;98417.81;;;1.94;100.00
7962;BME280;4026;43.652;24.906;2023-01-27T02:33:14;98405.81;;;1.99;100.00
7962;BME280;4026;43.652;24.906;2023-01-27T02:35:44;98401.59;;;2.00;100.00
7962;BME280;4026;43.652;24.906;2023-01-27T02:38:14;98392.69;;;2.10;100.00
7962;BME280;4026;43.652;24.906;2023-01-27T02:40:43;98397.34;;;2.00;100.00
7962;BME280;4026;43.652;24.906;2023-01-27T02:43:13;98400.91;;;1.96;100.00
7962;BME280;4026;43.652;24.906;2023-01-27T02:45:40;98406.56;;;1.84;100.00
7962;BME280;4026;43.652;24.906;2023-01-27T02:48:07;98420.44;;;1.93;100.00
7962;BME280;4026;43.652;24.906;2023-01-27T02:50:34;98416.69;;;1.83;100.00
7962;BME280;4026;43.652;24.906;2023-01-27T02:53:01;98414.84;;;1.86;100.00
7962;BME280;4026;43.652;24.906;2023-01-27T02:55:28;98406.69;;;1.81;100.00
7962;BME280;4026;43.652;24.906;2023-01-27T02:57:54;98409.56;;;1.73;100.00
7962;BME280;4026;43.652;24.906;2023-01-27T03:00:23;98411.72;;;1.64;100.00
7962;BME280;4026;43.652;24.906;2023-01-27T03:02:50;98417.38;;;1.69;100.00
7962;BME280;4026;43.652;24.906;2023-01-27T03:05:16;98422.94;;;1.75;100.00
7962;BME280;4026;43.652;24.906;2023-01-27T03:07:43;98429.22;;;1.67;100.00
7962;BME280;4026;43.652;24.906;2023-01-27T03:10:10;98438.41;;;1.68;100.00
7962;BME280;4026;43.652;24.906;2023-01-27T03:12:37;98439.28;;;1.67;100.00
7962;BME280;4026;43.652;24.906;2023-01-27T03:15:05;98426.22;;;1.58;100.00
7962;BME280;4026;43.652;24.906;2023-01-27T03:17:51;98424.84;;;1.34;100.00
7962;BME280;4026;43.652;24.906;2023-01-27T03:20:36;98418.78;;;1.38;100.00
7962;BME280;4026;43.652;24.906;2023-01-27T03:23:03;98408.97;;;1.32;100.00
7962;BME280;4026;43.652;24.906;2023-01-27T03:25:30;98406.78;;;1.24;100.00
7962;BME280;4026;43.652;24.906;2023-01-27T03:27:57;98419.63;;;1.20;100.00
7962;BME280;4026;43.652;24.906;2023-01-27T03:30:24;98416.28;;;1.00;100.00
7962;BME280;4026;43.652;24.906;2023-01-27T03:32:52;98398.22;;;1.09;100.00
7962;BME280;4026;43.652;24.906;2023-01-27T03:35:19;98401.66;;;1.08;100.00
7962;BME280;4026;43.652;24.906;2023-01-27T03:37:47;98418.38;;;1.09;100.00
7962;BME280;4026;43.652;24.906;2023-01-27T03:40:32;98431.59;;;1.15;100.00
7962;BME280;4026;43.652;24.906;2023-01-27T03:43:17;98440.03;;;1.13;100.00
7962;BME280;4026;43.652;24.906;2023-01-27T03:46:01;98442.06;;;1.05;100.00
7962;BME280;4026;43.652;24.906;2023-01-27T03:48:47;98447.50;;;0.96;100.00
7962;BME280;4026;43.652;24.906;2023-01-27T03:51:15;98433.88;;;1.00;100.00
7962;BME280;4026;43.652;24.906;2023-01-27T03:53:42;98437.50;;;1.13;100.00
7962;BME280;4026;43.652;24.906;2023-01-27T03:56:10;98436.88;;;1.08;100.00
7962;BME280;4026;43.652;24.906;2023-01-27T03:58:37;98435.72;;;1.16;100.00
7962;BME280;4026;43.652;24.906;2023-01-27T04:01:06;98438.19;;;1.17;100.00
7962;BME280;4026;43.652;24.906;2023-01-27T04:03:34;98445.59;;;1.20;100.00
7962;BME280;4026;43.652;24.906;2023-01-27T04:06:22;98449.97;;;1.17;100.00
7962;BME280;4026;43.652;24.906;2023-01-27T04:09:07;98440.13;;;1.10;100.00
7962;BME280;4026;43.652;24.906;2023-01-27T04:11:35;98443.13;;;1.19;100.00
7962;BME280;4026;43.652;24.906;2023-01-27T04:14:21;98442.84;;;1.25;100.00
7962;BME280;4026;43.652;24.906;2023-01-27T04:16:50;98447.66;;;1.31;100.00
7962;BME280;4026;43.652;24.906;2023-01-27T04:19:17;98430.50;;;1.20;100.00
7962;BME280;4026;43.652;24.906;2023-01-27T04:21:46;98422.72;;;1.25;100.00
7962;BME280;4026;43.652;24.906;2023-01-27T04:24:14;98426.41;;;1.18;100.00
7962;BME280;4026;43.652;24.906;2023-01-27T04:26:49;98425.84;;;1.30;100.00
7962;BME280;4026;43.652;24.906;2023-01-27T04:29:18;98420.34;;;1.22;100.00
7962;BME280;4026;43.652;24.906;2023-01-27T04:31:46;98414.44;;;1.23;100.00
7962;BME280;4026;43.652;24.906;2023-01-27T04:34:13;98407.22;;;1.34;100.00
7962;BME280;4026;43.652;24.906;2023-01-27T04:36:40;98394.81;;;1.29;100.00
7962;BME280;4026;43.652;24.906;2023-01-27T04:39:09;98395.63;;;1.30;100.00
7962;BME280;4026;43.652;24.906;2023-01-27T04:41:36;98402.53;;;1.26;100.00
7962;BME280;4026;43.652;24.906;2023-01-27T04:44:04;98400.53;;;1.33;100.00
7962;BME280;4026;43.652;24.906;2023-01-27T04:46:32;98409.50;;;1.39;100.00
7962;BME280;4026;43.652;24.906;2023-01-27T04:49:00;98404.47;;;1.39;100.00
7962;BME280;4026;43.652;24.906;2023-01-27T04:51:27;98418.09;;;1.34;100.00
7962;BME280;4026;43.652;24.906;2023-01-27T04:53:54;98410.50;;;1.53;100.00
7962;BME280;4026;43.652;24.906;2023-01-27T04:56:24;98423.53;;;1.44;100.00
7962;BME280;4026;43.652;24.906;2023-01-27T04:58:52;98425.16;;;1.45;100.00
7962;BME280;4026;43.652;24.906;2023-01-27T05:01:19;98433.97;;;1.54;100.00
7962;BME280;4026;43.652;24.906;2023-01-27T05:03:46;98431.56;;;1.52;100.00
7962;BME280;4026;43.652;24.906;2023-01-27T05:06:13;98443.53;;;1.47;100.00
7962;BME280;4026;43.652;24.906;2023-01-27T05:08:40;98434.50;;;1.43;100.00
7962;BME280;4026;43.652;24.906;2023-01-27T05:11:07;98429.22;;;1.48;100.00
7962;BME280;4026;43.652;24.906;2023-01-27T05:13:36;98428.13;;;1.53;100.00
7962;BME280;4026;43.652;24.906;2023-01-27T05:16:05;98432.16;;;1.57;100.00
7962;BME280;4026;43.652;24.906;2023-01-27T05:18:32;98421.03;;;1.62;100.00
7962;BME280;4026;43.652;24.906;2023-01-27T05:21:00;98421.78;;;1.64;100.00
7962;BME280;4026;43.652;24.906;2023-01-27T05:23:26;98423.78;;;1.74;100.00
7962;BME280;4026;43.652;24.906;2023-01-27T05:26:14;98436.78;;;1.67;100.00
7962;BME280;4026;43.652;24.906;2023-01-27T05:28:43;98437.06;;;1.61;100.00
7962;BME280;4026;43.652;24.906;2023-01-27T05:31:12;98436.00;;;1.65;100.00
7962;BME280;4026;43.652;24.906;2023-01-27T05:33:40;98430.38;;;1.59;100.00
7962;BME280;4026;43.652;24.906;2023-01-27T05:36:13;98430.97;;;1.65;100.00
7962;BME280;4026;43.652;24.906;2023-01-27T05:38:40;98430.53;;;1.74;100.00
7962;BME280;4026;43.652;24.906;2023-01-27T05:41:09;98416.94;;;1.78;100.00
7962;BME280;4026;43.652;24.906;2023-01-27T05:43:38;98429.97;;;1.86;100.00
7962;BME280;4026;43.652;24.906;2023-01-27T05:46:09;98434.88;;;1.89;100.00
7962;BME280;4026;43.652;24.906;2023-01-27T05:48:38;98426.44;;;1.90;100.00
7962;BME280;4026;43.652;24.906;2023-01-27T05:51:06;98430.09;;;1.83;100.00
7962;BME280;4026;43.652;24.906;2023-01-27T05:53:33;98434.13;;;1.87;100.00
7962;BME280;4026;43.652;24.906;2023-01-27T05:56:01;98432.13;;;1.94;100.00
7962;BME280;4026;43.652;24.906;2023-01-27T05:58:28;98430.41;;;1.77;100.00
7962;BME280;4026;43.652;24.906;2023-01-27T06:00:55;98432.94;;;1.94;100.00
7962;BME280;4026;43.652;24.906;2023-01-27T06:03:24;98432.94;;;1.94;100.00
7962;BME280;4026;43.652;24.906;2023-01-27T06:05:52;98436.88;;;2.00;100.00
7962;BME280;4026;43.652;24.906;2023-01-27T06:08:20;98443.16;;;1.91;100.00
7962;BME280;4026;43.652;24.906;2023-01-27T06:10:47;98434.78;;;1.91;100.00
7962;BME280;4026;43.652;24.906;2023-01-27T06:13:14;98433.22;;;1.88;100.00
7962;BME280;4026;43.652;24.906;2023-01-27T06:15:42;98441.22;;;1.79;100.00
7962;BME280;4026;43.652;24.906;2023-01-27T06:18:09;98443.03;;;1.94;100.00
7962;BME280;4026;43.652;24.906;2023-01-27T06:20:38;98441.66;;;1.70;100.00
7962;BME280;4026;43.652;24.906;2023-01-27T06:23:06;98436.56;;;1.89;100.00
7962;BME280;4026;43.652;24.906;2023-01-27T06:25:36;98442.28;;;1.75;100.00
7962;BME280;4026;43.652;24.906;2023-01-27T06:28:04;98443.91;;;1.76;100.00
7962;BME280;4026;43.652;24.906;2023-01-27T06:30:32;98440.03;;;1.69;100.00
7962;BME280;4026;43.652;24.906;2023-01-27T06:32:59;98440.03;;;1.86;100.00
7962;BME280;4026;43.652;24.906;2023-01-27T06:35:26;98440.78;;;1.71;100.00
7962;BME280;4026;43.652;24.906;2023-01-27T06:37:55;98447.47;;;1.72;100.00
7962;BME280;4026;43.652;24.906;2023-01-27T06:40:23;98452.34;;;1.75;100.00
7962;BME280;4026;43.652;24.906;2023-01-27T06:42:50;98452.50;;;1.72;100.00
7962;BME280;4026;43.652;24.906;2023-01-27T06:45:17;98455.59;;;1.77;100.00
7962;BME280;4026;43.652;24.906;2023-01-27T06:47:59;98453.41;;;1.88;100.00
7962;BME280;4026;43.652;24.906;2023-01-27T06:50:28;98445.16;;;1.85;100.00
7962;BME280;4026;43.652;24.906;2023-01-27T06:52:58;98447.06;;;1.98;100.00
7962;BME280;4026;43.652;24.906;2023-01-27T06:55:26;98452.81;;;2.00;100.00
7962;BME280;4026;43.652;24.906;2023-01-27T06:57:53;98454.59;;;1.98;100.00
7962;BME280;4026;43.652;24.906;2023-01-27T07:00:20;98459.47;;;1.84;100.00
7962;BME280;4026;43.652;24.906;2023-01-27T07:02:47;98472.00;;;1.86;100.00
7962;BME280;4026;43.652;24.906;2023-01-27T07:05:16;98475.13;;;1.91;100.00
7962;BME280;4026;43.652;24.906;2023-01-27T07:07:43;98474.47;;;1.87;100.00
7962;BME280;4026;43.652;24.906;2023-01-27T07:10:10;98481.91;;;2.08;100.00
7962;BME280;4026;43.652;24.906;2023-01-27T07:12:37;98486.91;;;1.90;100.00
7962;BME280;4026;43.652;24.906;2023-01-27T07:15:05;98493.28;;;1.97;100.00
7962;BME280;4026;43.652;24.906;2023-01-27T07:17:32;98494.50;;;2.08;100.00
7962;BME280;4026;43.652;24.906;2023-01-27T07:19:59;98495.31;;;2.08;100.00
7962;BME280;4026;43.652;24.906;2023-01-27T07:22:28;98495.09;;;1.95;100.00
7962;BME280;4026;43.652;24.906;2023-01-27T07:24:55;98498.78;;;1.88;100.00
7962;BME280;4026;43.652;24.906;2023-01-27T07:27:22;98497.16;;;1.87;100.00
7962;BME280;4026;43.652;24.906;2023-01-27T07:29:49;98500.41;;;1.89;100.00
7962;BME280;4026;43.652;24.906;2023-01-27T07:32:16;98505.59;;;1.48;100.00
7962;BME280;4026;43.652;24.906;2023-01-27T07:34:43;98509.69;;;1.70;100.00
7962;BME280;4026;43.652;24.906;2023-01-27T07:37:10;98504.59;;;1.52;100.00
7962;BME280;4026;43.652;24.906;2023-01-27T07:39:38;98508.13;;;1.67;100.00
7962;BME280;4026;43.652;24.906;2023-01-27T07:42:05;98506.72;;;1.62;100.00
7962;BME280;4026;43.652;24.906;2023-01-27T07:44:32;98513.16;;;1.48;100.00
7962;BME280;4026;43.652;24.906;2023-01-27T07:46:59;98522.94;;;1.37;100.00
7962;BME280;4026;43.652;24.906;2023-01-27T07:49:26;98511.19;;;1.36;100.00
7962;BME280;4026;43.652;24.906;2023-01-27T07:51:52;98504.41;;;1.38;100.00
7962;BME280;4026;43.652;24.906;2023-01-27T07:54:19;98501.41;;;1.30;100.00
7962;BME280;4026;43.652;24.906;2023-01-27T07:56:48;98505.88;;;1.42;100.00
7962;BME280;4026;43.652;24.906;2023-01-27T07:59:14;98500.25;;;1.37;100.00
7962;BME280;4026;43.652;24.906;2023-01-27T08:01:41;98498.41;;;1.59;100.00
7962;BME280;4026;43.652;24.906;2023-01-27T08:04:08;98508.88;;;1.50;100.00
7962;BME280;4026;43.652;24.906;2023-01-27T08:06:37;98506.97;;;1.36;100.00
7962;BME280;4026;43.652;24.906;2023-01-27T08:09:03;98513.91;;;1.12;100.00
7962;BME280;4026;43.652;24.906;2023-01-27T08:11:30;98508.63;;;1.38;100.00
7962;BME280;4026;43.652;24.906;2023-01-27T08:13:59;98514.47;;;1.38;100.00
7962;BME280;4026;43.652;24.906;2023-01-27T08:16:26;98508.63;;;1.38;100.00
7962;BME280;4026;43.652;24.906;2023-01-27T08:18:53;98519.78;;;1.32;100.00
7962;BME280;4026;43.652;24.906;2023-01-27T08:21:20;98522.50;;;1.27;100.00
7962;BME280;4026;43.652;24.906;2023-01-27T08:23:47;98505.63;;;1.29;100.00
7962;BME280;4026;43.652;24.906;2023-01-27T08:26:14;98497.75;;;1.37;100.00
7962;BME280;4026;43.652;24.906;2023-01-27T08:28:41;98493.22;;;1.25;100.00
7962;BME280;4026;43.652;24.906;2023-01-27T08:31:11;98492.41;;;1.05;100.00
7962;BME280;4026;43.652;24.906;2023-01-27T08:33:38;98489.44;;;1.35;100.00
7962;BME280;4026;43.652;24.906;2023-01-27T08:36:07;98481.13;;;1.33;100.00
7962;BME280;4026;43.652;24.906;2023-01-27T08:38:35;98473.50;;;1.34;100.00
7962;BME280;4026;43.652;24.906;2023-01-27T08:41:04;98473.63;;;1.12;100.00
7962;BME280;4026;43.652;24.906;2023-01-27T08:43:31;98463.91;;;1.24;100.00
7962;BME280;4026;43.652;24.906;2023-01-27T08:45:59;98457.59;;;1.34;100.00
7962;BME280;4026;43.652;24.906;2023-01-27T08:48:28;98458.72;;;1.27;100.00
7962;BME280;4026;43.652;24.906;2023-01-27T08:50:56;98464.66;;;1.26;100.00
7962;BME280;4026;43.652;24.906;2023-01-27T08:53:24;98464.09;;;1.19;100.00
7962;BME280;4026;43.652;24.906;2023-01-27T08:55:52;98472.81;;;1.12;100.00
7962;BME280;4026;43.652;24.906;2023-01-27T08:58:19;98465.84;;;0.98;100.00
7962;BME280;4026;43.652;24.906;2023-01-27T09:00:47;98465.03;;;0.98;100.00
7962;BME280;4026;43.652;24.906;2023-01-27T09:03:14;98455.88;;;0.97;100.00
7962;BME280;4026;43.652;24.906;2023-01-27T09:05:42;98456.06;;;0.92;100.00
7962;BME280;4026;43.652;24.906;2023-01-27T09:08:09;98447.59;;;0.93;100.00
7962;BME280;4026;43.652;24.906;2023-01-27T09:10:37;98446.78;;;0.93;100.00
7962;BME280;4026;43.652;24.906;2023-01-27T09:13:04;98442.72;;;0.90;100.00
7962;BME280;4026;43.652;24.906;2023-01-27T09:15:31;98435.03;;;0.93;100.00
7962;BME280;4026;43.652;24.906;2023-01-27T09:17:59;98434.22;;;0.93;100.00
7962;BME280;4026;43.652;24.906;2023-01-27T09:20:26;98434.84;;;0.98;100.00
7962;BME280;4026;43.652;24.906;2023-01-27T09:22:55;98436.25;;;1.03;100.00
7962;BME280;4026;43.652;24.906;2023-01-27T09:25:22;98431.66;;;0.94;100.00
7962;BME280;4026;43.652;24.906;2023-01-27T09:27:53;98435.03;;;0.93;100.00
7962;BME280;4026;43.652;24.906;2023-01-27T09:30:20;98425.09;;;0.90;100.00
7962;BME280;4026;43.652;24.906;2023-01-27T09:32:48;98434.97;;;0.76;100.00
7962;BME280;4026;43.652;24.906;2023-01-27T09:35:15;98427.47;;;0.74;100.00
7962;BME280;4026;43.652;24.906;2023-01-27T09:37:45;98430.94;;;0.72;100.00
7962;BME280;4026;43.652;24.906;2023-01-27T09:40:23;98433.41;;;0.73;100.00
7962;BME280;4026;43.652;24.906;2023-01-27T09:43:08;98430.59;;;0.98;100.00
7962;BME280;4026;43.652;24.906;2023-01-27T09:45:59;98434.84;;;0.79;100.00
7962;BME280;4026;43.652;24.906;2023-01-27T09:48:39;98431.81;;;0.71;100.00
7962;BME280;4026;43.652;24.906;2023-01-27T09:51:14;98419.97;;;0.73;100.00
7962;BME280;4026;43.652;24.906;2023-01-27T09:54:12;98419.16;;;0.72;100.00
7962;BME280;4026;43.652;24.906;2023-01-27T09:56:54;98417.13;;;0.61;100.00
7962;BME280;4026;43.652;24.906;2023-01-27T09:59:42;98413.31;;;0.72;100.00
7962;BME280;4026;43.652;24.906;2023-01-27T10:02:23;98415.03;;;0.71;100.00
7962;BME280;4026;43.652;24.906;2023-01-27T10:05:04;98424.38;;;0.88;100.00
7962;BME280;4026;43.652;24.906;2023-01-27T10:07:49;98417.09;;;0.82;100.00
7962;BME280;4026;43.652;24.906;2023-01-27T10:10:32;98418.72;;;0.83;100.00
7962;BME280;4026;43.652;24.906;2023-01-27T10:13:20;98419.47;;;0.85;100.00
7962;BME280;4026;43.652;24.906;2023-01-27T10:16:04;98430.34;;;1.04;100.00
7962;BME280;4026;43.652;24.906;2023-01-27T10:18:49;98420.41;;;1.01;100.00
7962;BME280;4026;43.652;24.906;2023-01-27T10:21:27;98428.59;;;0.87;100.00
7962;BME280;4026;43.652;24.906;2023-01-27T10:24:05;98429.66;;;0.82;100.00
7962;BME280;4026;43.652;24.906;2023-01-27T10:26:37;98432.69;;;0.70;100.00
7962;BME280;4026;43.652;24.906;2023-01-27T10:29:08;98435.28;;;0.68;100.00
7962;BME280;4026;43.652;24.906;2023-01-27T10:31:37;98424.44;;;0.47;100.00
7962;BME280;4026;43.652;24.906;2023-01-27T10:34:14;98421.28;;;0.42;100.00
7962;BME280;4026;43.652;24.906;2023-01-27T10:36:49;98419.09;;;0.74;100.00
7962;BME280;4026;43.652;24.906;2023-01-27T10:39:27;98421.34;;;0.80;100.00
7962;BME280;4026;43.652;24.906;2023-01-27T10:42:04;98430.25;;;0.68;100.00
7962;BME280;4026;43.652;24.906;2023-01-27T10:44:45;98421.19;;;0.64;100.00
7962;BME280;4026;43.652;24.906;2023-01-27T10:47:22;98418.06;;;0.59;100.00
7962;BME280;4026;43.652;24.906;2023-01-27T10:49:56;98421.56;;;0.55;100.00
7962;BME280;4026;43.652;24.906;2023-01-27T10:52:30;98419.53;;;0.44;100.00
7962;BME280;4026;43.652;24.906;2023-01-27T10:55:03;98409.59;;;0.41;100.00
7962;BME280;4026;43.652;24.906;2023-01-27T10:57:36;98411.09;;;0.45;100.00
7962;BME280;4026;43.652;24.906;2023-01-27T11:00:14;98405.97;;;0.47;100.00
7962;BME280;4026;43.652;24.906;2023-01-27T11:02:48;98413.22;;;0.54;100.00
7962;BME280;4026;43.652;24.906;2023-01-27T11:05:19;98414.25;;;0.50;100.00
7962;BME280;4026;43.652;24.906;2023-01-27T11:07:51;98414.25;;;0.50;100.00
7962;BME280;4026;43.652;24.906;2023-01-27T11:10:21;98416.28;;;0.61;100.00
7962;BME280;4026;43.652;24.906;2023-01-27T11:12:51;98412.16;;;0.39;100.00
7962;BME280;4026;43.652;24.906;2023-01-27T11:15:25;98409.91;;;0.33;100.00
7962;BME280;4026;43.652;24.906;2023-01-27T11:17:57;98412.97;;;0.40;100.00
7962;BME280;4026;43.652;24.906;2023-01-27T11:20:28;98406.72;;;0.30;100.00
7962;BME280;4026;43.652;24.906;2023-01-27T11:23:00;98401.81;;;0.27;100.00
7962;BME280;4026;43.652;24.906;2023-01-27T11:25:35;98397.59;;;0.27;100.00
7962;BME280;4026;43.652;24.906;2023-01-27T11:28:19;98401.81;;;0.27;100.00
7962;BME280;4026;43.652;24.906;2023-01-27T11:30:57;98397.09;;;0.39;100.00
7962;BME280;4026;43.652;24.906;2023-01-27T11:33:36;98396.66;;;0.30;100.00
7962;BME280;4026;43.652;24.906;2023-01-27T11:36:09;98398.16;;;0.34;100.00
7962;BME280;4026;43.652;24.906;2023-01-27T11:38:36;98394.88;;;0.32;100.00
7962;BME280;4026;43.652;24.906;2023-01-27T11:41:03;98394.66;;;0.38;100.00
7962;BME280;4026;43.652;24.906;2023-01-27T11:43:30;98394.13;;;0.50;100.00
7962;BME280;4026;43.652;24.906;2023-01-27T11:46:03;98391.50;;;0.33;100.00
7962;BME280;4026;43.652;24.906;2023-01-27T11:48:37;98399.16;;;0.30;100.00
7962;BME280;4026;43.652;24.906;2023-01-27T11:51:12;98393.44;;;0.26;100.00
7962;BME280;4026;43.652;24.906;2023-01-27T11:53:42;98395.13;;;0.26;100.00
7962;BME280;4026;43.652;24.906;2023-01-27T11:56:15;98393.06;;;0.35;100.00
7962;BME280;4026;43.652;24.906;2023-01-27T11:58:48;98390.75;;;0.31;100.00
7962;BME280;4026;43.652;24.906;2023-01-27T12:01:20;98387.94;;;0.18;100.00
7962;BME280;4026;43.652;24.906;2023-01-27T12:03:53;98391.50;;;0.33;100.00
7962;BME280;4026;43.652;24.906;2023-01-27T12:06:29;98384.66;;;0.16;100.00
7962;BME280;4026;43.652;24.906;2023-01-27T12:08:58;98396.78;;;0.27;100.00
7962;BME280;4026;43.652;24.906;2023-01-27T12:11:26;98391.44;;;0.14;100.00
7962;BME280;4026;43.652;24.906;2023-01-27T12:13:56;98393.91;;;0.15;100.00
7962;BME280;4026;43.652;24.906;2023-01-27T12:16:29;98391.13;;;0.21;100.00
7962;BME280;4026;43.652;24.906;2023-01-27T12:19:03;98386.78;;;0.25;100.00
7962;BME280;4026;43.652;24.906;2023-01-27T12:21:50;98399.78;;;0.35;100.00
7962;BME280;4026;43.652;24.906;2023-01-27T12:24:23;98403.69;;;0.42;100.00
7962;BME280;4026;43.652;24.906;2023-01-27T12:26:52;98397.34;;;0.33;100.00
7962;BME280;4026;43.652;24.906;2023-01-27T12:29:23;98400.53;;;0.37;100.00
7962;BME280;4026;43.652;24.906;2023-01-27T12:31:55;98401.16;;;0.42;100.00
7962;BME280;4026;43.652;24.906;2023-01-27T12:34:29;98405.94;;;0.48;100.00
7962;BME280;4026;43.652;24.906;2023-01-27T12:36:57;98408.56;;;0.45;100.00
7962;BME280;4026;43.652;24.906;2023-01-27T12:39:29;98407.94;;;0.40;100.00
7962;BME280;4026;43.652;24.906;2023-01-27T12:41:58;98406.31;;;0.39;100.00
7962;BME280;4026;43.652;24.906;2023-01-27T12:44:24;98421.66;;;0.33;100.00
7962;BME280;4026;43.652;24.906;2023-01-27T12:47:00;98416.81;;;0.49;100.00
7962;BME280;4026;43.652;24.906;2023-01-27T12:49:31;98418.38;;;0.51;100.00
7962;BME280;4026;43.652;24.906;2023-01-27T12:52:01;98427.53;;;0.52;100.00
7962;BME280;4026;43.652;24.906;2023-01-27T12:54:31;98432.56;;;0.52;100.00
7962;BME280;4026;43.652;24.906;2023-01-27T12:57:01;98430.53;;;0.41;100.00
7962;BME280;4026;43.652;24.906;2023-01-27T12:59:29;98425.50;;;0.41;100.00
7962;BME280;4026;43.652;24.906;2023-01-27T13:02:00;98427.13;;;0.42;100.00
7962;BME280;4026;43.652;24.906;2023-01-27T13:04:28;98422.59;;;0.51;100.00
7962;BME280;4026;43.652;24.906;2023-01-27T13:07:02;98427.00;;;0.45;100.00
7962;BME280;4026;43.652;24.906;2023-01-27T13:09:33;98428.31;;;0.54;100.00
7962;BME280;4026;43.652;24.906;2023-01-27T13:12:04;98441.00;;;0.51;100.00
7962;BME280;4026;43.652;24.906;2023-01-27T13:14:39;98433.03;;;0.62;100.00
7962;BME280;4026;43.652;24.906;2023-01-27T13:17:26;98430.69;;;0.57;100.00
7962;BME280;4026;43.652;24.906;2023-01-27T13:19:54;98435.66;;;0.59;100.00
7962;BME280;4026;43.652;24.906;2023-01-27T13:22:24;98436.53;;;0.58;100.00
7962;BME280;4026;43.652;24.906;2023-01-27T13:24:59;98442.28;;;0.61;100.00
7962;BME280;4026;43.652;24.906;2023-01-27T13:27:36;98442.63;;;0.52;100.00